Airfield :







YOU CAN JOIN US ON...

 
LOGIN :

Register | Disclaimer

   EN    FR    IT 

 









Legend :    VFR   Marginal VFR   IFR   Intensive IFR   Very Intensive IFR
Visi :
Ceiling :
>= 8 km
>= 3000ft
5 to 8 km
1000 to 3000 ft
1500m to 5 km
500 to 1000 ft
800 to 1500m
200 to 500 ft
< 800m
< 200 ft
Symbols :   Thunderstorms  Fog  Heavy snow  Heavy precipitations  Wind > 20 kt







- Airport Elevation : 234 ft
- IATA code : PBG


KPBG - Plattsburgh International

CURRENT METAR :
  • 220509Z AUTO 00000KT 10SM SCT007 OVC085 02/01 A2974 RMK AO2 T00170011

EXPIRED METARs :
  • 220453Z AUTO 16003KT 10SM OVC006 02/02 A2974 RMK AO2 RAE27 SLP074 P0000 T00220017 400831028
  • 220434Z AUTO 13003KT 10SM BKN005 BKN050 OVC070 02/02 A2975 RMK AO2 RAE27 P0000 T00220017
  • 220423Z AUTO 14005KT 10SM -RA SCT005 SCT050 OVC065 02/02 A2976 RMK AO2 P0000 T00220017
  • 220353Z AUTO 13006KT 10SM -RA BKN047 OVC060 02/01 A2978 RMK AO2 RAB16 SLP086 P0000 T00220011
  • 220253Z AUTO 16007KT 10SM SCT045 BKN060 OVC080 03/02 A2982 RMK AO2 RAE47 SLP101 P0001 60001 T00280017 58021

TAF KPBG
Valid from the 22 at 06:00 until the 23 at 06:00 UTC


220520Z 2206/2306 VRB04KT P6SM VCSH SCT007 BKN050
FM220900 05006KT 5SM -SNRA BR OVC020
FM221300 VRB04KT 1 1/2SM -SNRA BR OVC015
FM230300 34014G24KT 1 1/2SM -SNRA BR OVC015
KZBW FIR / North America



MET'MAP, your aeronautical weather chart ! - Copyright ORBIFLY December 2007 - Disclaimer

ORBIFLY MET'MAP TEAM :

Programming & Development : Alexandra Zaïnal
Concept & Development : Baudouin d'Aumeries
Co-Development & Prog : Marc-Olivier Méhu
Technical & hardware support : Manuel Goepfert

Contact : metmap@orbifly.com




SOURCES & CREDITS :

   NOAA